Time;durP1;ratioP1;P1;durP2;ratioP2;P2;SDS_P1;SDS_P2;PMS_P1;PMS_P2;Temp;Humidity;BMP_temperature;BMP_pressure;BME280_temperature;BME280_humidity;BME280_pressure;Samples;Min_cycle;Max_cycle;Signal;HPM_P1;HPM_P2
2021/03/30 00:00:16;;;;;;;10.57;7.83;;;12.50;99.90;;;;;;5017529;28;20686;-61
2021/03/30 00:02:42;;;;;;;13.40;6.68;;;12.50;99.90;;;;;;5017500;28;20210;-66
2021/03/30 00:05:08;;;;;;;11.13;6.83;;;12.50;99.90;;;;;;5017070;28;20245;-63
2021/03/30 00:07:33;;;;;;;13.13;7.68;;;12.40;1.00;;;;;;5017537;28;20181;-62
2021/03/30 00:09:59;;;;;;;8.30;5.83;;;12.40;1.00;;;;;;5017297;28;20183;-64
2021/03/30 00:12:25;;;;;;;15.20;7.23;;;12.50;1.00;;;;;;5017302;28;20603;-64
2021/03/30 00:14:50;;;;;;;14.30;7.40;;;12.40;1.00;;;;;;5017140;28;20188;-63
2021/03/30 00:17:16;;;;;;;10.57;7.00;;;12.40;1.00;;;;;;5017222;28;20520;-63
2021/03/30 00:19:41;;;;;;;14.33;6.87;;;12.30;1.00;;;;;;5017037;28;20646;-61
2021/03/30 00:22:07;;;;;;;11.93;6.60;;;12.30;1.00;;;;;;5017024;28;20520;-61
2021/03/30 00:24:32;;;;;;;9.33;6.60;;;12.30;1.00;;;;;;5016793;28;20260;-61
2021/03/30 00:26:58;;;;;;;15.17;7.77;;;12.50;1.00;;;;;;5017109;28;20179;-61
2021/03/30 00:29:23;;;;;;;13.30;7.10;;;12.50;1.00;;;;;;5032651;28;20510;-67
2021/03/30 00:31:49;;;;;;;11.40;7.20;;;12.50;1.00;;;;;;5015780;28;20207;-65
2021/03/30 00:34:15;;;;;;;13.90;6.90;;;12.30;1.00;;;;;;5016542;28;20187;-65
2021/03/30 00:36:40;;;;;;;13.97;6.90;;;12.40;1.00;;;;;;5016857;28;20193;-64
2021/03/30 00:39:06;;;;;;;10.43;6.87;;;12.30;1.00;;;;;;5016648;28;20213;-63
2021/03/30 00:41:42;;;;;;;13.03;8.07;;;12.40;1.00;;;;;;5016723;28;20174;-63
2021/03/30 00:44:12;;;;;;;13.35;6.60;;;12.40;1.00;;;;;;5016863;28;20495;-67
2021/03/30 00:46:39;;;;;;;12.25;6.82;;;12.40;99.90;;;;;;5015563;28;20175;-61
2021/03/30 00:49:05;;;;;;;9.73;7.40;;;12.40;99.90;;;;;;5016487;28;20179;-65
2021/03/30 00:51:31;;;;;;;14.67;8.17;;;12.10;1.00;;;;;;5016497;28;20187;-63
2021/03/30 00:53:57;;;;;;;12.43;7.67;;;12.10;99.90;;;;;;5016359;28;20254;-64
2021/03/30 00:56:22;;;;;;;12.88;7.30;;;12.00;1.00;;;;;;5016423;28;20190;-63
2021/03/30 00:58:50;;;;;;;12.30;7.70;;;12.00;1.00;;;;;;5016382;28;20174;-61
2021/03/30 01:01:15;;;;;;;16.85;8.68;;;12.00;1.00;;;;;;5016200;28;20277;-61
2021/03/30 01:03:41;;;;;;;13.87;6.80;;;12.00;99.90;;;;;;5015863;28;20425;-61
2021/03/30 01:06:06;;;;;;;17.03;8.13;;;12.10;99.90;;;;;;5015849;28;20217;-61
2021/03/30 01:08:47;;;;;;;13.13;7.57;;;12.10;1.00;;;;;;5016140;28;20179;-61
2021/03/30 01:11:21;;;;;;;14.98;7.55;;;12.00;1.00;;;;;;5016218;28;20194;-61
2021/03/30 01:14:01;;;;;;;15.63;7.15;;;12.10;1.00;;;;;;5015817;28;20239;-63
2021/03/30 01:16:37;;;;;;;12.57;7.10;;;12.10;99.90;;;;;;5016007;28;20187;-63
2021/03/30 01:19:27;;;;;;;7.88;5.72;;;12.10;99.90;;;;;;5016012;28;20262;-63
2021/03/30 01:22:17;;;;;;;11.13;6.95;;;12.10;1.00;;;;;;5015948;28;20641;-63
2021/03/30 01:24:49;;;;;;;11.15;6.03;;;12.00;1.00;;;;;;5031271;28;20709;-63
2021/03/30 01:27:36;;;;;;;11.95;6.72;;;12.00;1.00;;;;;;5016353;28;20185;-63
2021/03/30 01:30:05;;;;;;;14.02;6.85;;;12.00;98.20;;;;;;5015919;28;20175;-63
2021/03/30 01:32:44;;;;;;;10.55;6.95;;;12.00;99.90;;;;;;5015601;28;20269;-66
2021/03/30 01:35:18;;;;;;;14.65;7.28;;;12.00;1.00;;;;;;5015671;28;20179;-67
2021/03/30 01:37:46;;;;;;;14.30;6.20;;;12.00;1.00;;;;;;5015526;28;20190;-67
2021/03/30 01:40:15;;;;;;;17.70;5.90;;;11.90;25.30;;;;;;5015705;28;20186;-67
2021/03/30 01:42:41;;;;;;;15.73;6.15;;;12.00;1.00;;;;;;5015497;28;20269;-67
2021/03/30 01:45:09;;;;;;;17.50;6.57;;;12.00;73.20;;;;;;5015205;28;20325;-61
2021/03/30 01:47:37;;;;;;;10.20;6.00;;;12.00;99.90;;;;;;5015391;28;20174;-61
2021/03/30 01:50:04;;;;;;;12.65;6.25;;;12.00;1.00;;;;;;5015436;28;20186;-61
2021/03/30 01:52:32;;;;;;;12.23;5.50;;;11.90;1.00;;;;;;5015252;28;20178;-61
2021/03/30 01:54:58;;;;;;;10.18;5.20;;;12.00;1.00;;;;;;5015117;28;20186;-64
2021/03/30 01:57:27;;;;;;;8.85;5.40;;;12.00;99.90;;;;;;5015138;28;20197;-64
2021/03/30 01:59:52;;;;;;;7.63;5.65;;;12.10;99.90;;;;;;5015395;28;20292;-61
2021/03/30 02:02:20;;;;;;;9.53;5.47;;;12.00;99.90;;;;;;5015856;28;20651;-61
2021/03/30 02:04:47;;;;;;;9.75;5.30;;;11.90;53.40;;;;;;5015127;28;20206;-63
2021/03/30 02:07:15;;;;;;;12.00;6.57;;;11.90;99.90;;;;;;5015214;28;20179;-63
2021/03/30 02:09:45;;;;;;;10.02;5.10;;;11.90;1.00;;;;;;5015222;28;20244;-63
2021/03/30 02:12:13;;;;;;;9.93;5.63;;;11.80;1.00;;;;;;5015020;28;20177;-63
2021/03/30 02:14:39;;;;;;;7.40;4.88;;;11.80;1.00;;;;;;5014945;28;20174;-63
2021/03/30 02:17:15;;;;;;;8.33;5.40;;;11.70;1.00;;;;;;5014204;28;20244;-63
2021/03/30 02:20:16;;;;;;;10.18;4.53;;;11.80;1.00;;;;;;5015402;28;20707;-61
2021/03/30 02:22:57;;;;;;;9.88;4.63;;;11.80;1.00;;;;;;5011305;28;20197;-61
2021/03/30 02:25:23;;;;;;;8.35;5.45;;;11.90;99.90;;;;;;5014500;28;20224;-61
2021/03/30 02:27:52;;;;;;;10.20;5.05;;;11.80;99.90;;;;;;5018699;28;20221;-61
2021/03/30 02:30:20;;;;;;;11.15;4.72;;;11.70;1.00;;;;;;5023313;28;20191;-61
2021/03/30 02:32:48;;;;;;;9.88;4.82;;;11.70;1.00;;;;;;5018897;28;20181;-61
2021/03/30 02:35:16;;;;;;;10.30;5.07;;;11.70;1.00;;;;;;5014544;28;20193;-61
2021/03/30 02:37:44;;;;;;;7.65;5.25;;;11.70;1.00;;;;;;5014993;28;20202;-61
2021/03/30 02:40:13;;;;;;;11.43;5.32;;;11.80;1.00;;;;;;5014729;28;20186;-64
2021/03/30 02:42:41;;;;;;;10.05;5.20;;;11.70;1.00;;;;;;5014669;28;20179;-62
2021/03/30 02:45:09;;;;;;;9.57;4.50;;;11.60;1.00;;;;;;5014358;28;20218;-59
2021/03/30 02:47:36;;;;;;;8.40;5.35;;;11.70;1.00;;;;;;5014768;28;20179;-60
2021/03/30 02:50:03;;;;;;;10.90;4.60;;;11.70;1.00;;;;;;5015424;28;20186;-63
2021/03/30 02:52:30;;;;;;;13.43;5.40;;;11.70;1.00;;;;;;5014694;28;20170;-63
2021/03/30 02:54:57;;;;;;;8.35;5.70;;;11.70;1.00;;;;;;5014810;28;20187;-63
2021/03/30 02:57:23;;;;;;;11.50;5.03;;;11.80;1.00;;;;;;5017029;28;20183;-63
2021/03/30 02:59:52;;;;;;;12.35;5.90;;;11.70;1.00;;;;;;5016302;28;20189;-63
2021/03/30 03:02:18;;;;;;;11.57;5.47;;;11.70;1.00;;;;;;5014898;28;20187;-62
2021/03/30 03:04:47;;;;;;;13.13;5.88;;;11.70;1.00;;;;;;5014967;28;20207;-64
2021/03/30 03:07:13;;;;;;;10.63;5.65;;;11.80;1.00;;;;;;5015072;28;20306;-63
2021/03/30 03:09:40;;;;;;;10.05;5.68;;;11.70;1.00;;;;;;5017382;28;20175;-63
2021/03/30 03:12:07;;;;;;;11.05;4.70;;;11.60;1.00;;;;;;5015787;28;20326;-63
2021/03/30 03:14:36;;;;;;;12.23;5.75;;;11.70;18.10;;;;;;5030706;28;20195;-63
2021/03/30 03:17:02;;;;;;;8.77;5.38;;;11.70;1.00;;;;;;5015524;28;20253;-65
2021/03/30 03:19:29;;;;;;;11.05;5.13;;;11.70;1.00;;;;;;5015280;28;20186;-62
2021/03/30 03:21:55;;;;;;;12.30;5.53;;;11.80;1.00;;;;;;5017818;28;20189;-64
2021/03/30 03:24:21;;;;;;;11.15;6.13;;;11.80;1.00;;;;;;5019530;28;20585;-63
2021/03/30 03:26:47;;;;;;;9.32;6.18;;;11.80;1.00;;;;;;5018596;28;20175;-62
2021/03/30 03:29:17;;;;;;;7.80;4.90;;;11.80;1.00;;;;;;5019246;28;20171;-63
2021/03/30 03:31:44;;;;;;;10.45;7.05;;;11.80;1.00;;;;;;5019028;28;20417;-62
2021/03/30 03:34:13;;;;;;;11.35;7.22;;;11.90;92.00;;;;;;5018489;28;20178;-61
2021/03/30 03:36:42;;;;;;;12.50;6.60;;;11.90;99.90;;;;;;5016645;28;20262;-61
2021/03/30 03:39:11;;;;;;;12.25;7.88;;;11.90;1.00;;;;;;5014967;28;20207;-61
2021/03/30 03:41:37;;;;;;;11.98;7.95;;;11.90;1.00;;;;;;5013746;28;20194;-61
2021/03/30 03:44:04;;;;;;;20.52;7.93;;;11.80;1.00;;;;;;5014482;28;20301;-61
2021/03/30 03:46:30;;;;;;;14.80;8.15;;;11.80;99.90;;;;;;5014366;28;20182;-61
2021/03/30 03:48:56;;;;;;;12.53;7.80;;;11.80;1.00;;;;;;5014423;28;20178;-61
2021/03/30 03:51:22;;;;;;;12.30;7.78;;;11.80;1.00;;;;;;5014100;28;20496;-66
2021/03/30 03:53:50;;;;;;;14.77;8.50;;;11.90;1.00;;;;;;5015868;28;20179;-66
2021/03/30 03:56:20;;;;;;;17.38;9.65;;;11.80;1.00;;;;;;5017368;28;20178;-62
2021/03/30 03:58:48;;;;;;;13.95;8.57;;;11.80;1.00;;;;;;5021546;28;20179;-63
2021/03/30 04:01:19;;;;;;;13.60;8.70;;;11.70;1.00;;;;;;5013920;28;20232;-63
2021/03/30 04:04:00;;;;;;;16.40;8.40;;;11.70;1.00;;;;;;5016615;28;20221;-63
2021/03/30 04:06:38;;;;;;;14.10;8.57;;;11.80;1.00;;;;;;5015474;28;20190;-63
2021/03/30 04:09:09;;;;;;;17.00;8.73;;;11.80;99.90;;;;;;5013847;28;20183;-62
2021/03/30 04:11:35;;;;;;;13.70;8.00;;;11.70;99.90;;;;;;5017188;28;20251;-62
2021/03/30 04:14:01;;;;;;;12.45;8.07;;;11.70;1.00;;;;;;5016567;28;20189;-62
2021/03/30 04:16:26;;;;;;;14.37;8.50;;;11.70;1.00;;;;;;5013596;28;20187;-63
2021/03/30 04:18:52;;;;;;;13.67;8.20;;;11.70;99.90;;;;;;5014647;28;20175;-63
2021/03/30 04:21:26;;;;;;;16.37;8.10;;;11.60;99.90;;;;;;5013500;28;20179;-62
2021/03/30 04:23:53;;;;;;;11.75;8.82;;;11.70;99.90;;;;;;5013055;28;20204;-62
2021/03/30 04:26:19;;;;;;;15.93;8.55;;;11.70;99.90;;;;;;5013487;28;20199;-62
2021/03/30 04:28:45;;;;;;;9.27;7.28;;;11.70;99.90;;;;;;5013295;28;20171;-62
2021/03/30 04:31:10;;;;;;;25.80;10.40;;;11.70;50.00;;;;;;5029008;28;20175;-62
2021/03/30 04:33:36;;;;;;;11.40;7.33;;;11.80;3.80;;;;;;5013233;28;20182;-63
2021/03/30 04:36:01;;;;;;;11.40;6.60;;;11.80;38.50;;;;;;5013481;28;20505;-62
2021/03/30 04:38:27;;;;;;;12.57;8.93;;;11.70;37.30;;;;;;5028949;28;20221;-63
2021/03/30 04:40:53;;;;;;;14.13;9.03;;;11.90;10.60;;;;;;5016189;28;20619;-63
2021/03/30 04:43:22;;;;;;;14.38;8.27;;;11.80;1.00;;;;;;5016824;28;20265;-63
2021/03/30 04:45:48;;;;;;;15.05;8.45;;;11.70;14.40;;;;;;5016781;28;20183;-63
2021/03/30 04:48:14;;;;;;;12.93;9.23;;;11.60;99.90;;;;;;5016492;28;20193;-62
2021/03/30 04:50:40;;;;;;;13.40;8.20;;;11.60;99.90;;;;;;5016478;28;20428;-63
2021/03/30 04:53:06;;;;;;;17.02;9.20;;;11.60;99.90;;;;;;5016419;28;20495;-63
2021/03/30 04:55:32;;;;;;;18.90;9.27;;;11.70;99.90;;;;;;5016792;28;20187;-63
2021/03/30 04:57:57;;;;;;;21.07;9.00;;;11.80;99.90;;;;;;5016426;28;20578;-63
2021/03/30 05:00:23;;;;;;;19.70;9.53;;;11.70;99.90;;;;;;5016406;28;20174;-62
2021/03/30 05:02:48;;;;;;;12.40;7.23;;;11.70;99.90;;;;;;5016215;28;20266;-62
2021/03/30 05:05:14;;;;;;;12.80;7.87;;;11.60;99.40;;;;;;5016037;28;20248;-62
2021/03/30 05:07:40;;;;;;;18.37;8.90;;;11.70;59.80;;;;;;5016126;28;20182;-62
2021/03/30 05:10:06;;;;;;;14.20;8.50;;;11.80;1.00;;;;;;5016053;28;20867;-62
2021/03/30 05:12:32;;;;;;;15.75;9.02;;;11.80;1.00;;;;;;5016070;28;20194;-61
2021/03/30 05:14:58;;;;;;;12.17;8.43;;;11.80;1.00;;;;;;5015836;28;20187;-61
2021/03/30 05:17:23;;;;;;;15.33;9.20;;;11.80;1.00;;;;;;5015770;28;20178;-61
2021/03/30 05:19:49;;;;;;;13.60;8.10;;;11.80;1.00;;;;;;5015958;28;20183;-61
2021/03/30 05:22:14;;;;;;;13.20;8.60;;;11.90;1.00;;;;;;5015542;28;20248;-61
2021/03/30 05:24:40;;;;;;;14.77;9.00;;;11.90;1.00;;;;;;5015460;28;20288;-66
2021/03/30 05:27:07;;;;;;;17.90;9.70;;;12.20;1.00;;;;;;5015771;28;20270;-66
2021/03/30 05:29:42;;;;;;;12.15;8.38;;;12.50;99.90;;;;;;5015593;28;20179;-66
2021/03/30 05:32:09;;;;;;;13.05;8.57;;;12.70;44.20;;;;;;5014754;28;20193;-66
2021/03/30 05:34:35;;;;;;;14.50;8.90;;;12.90;1.00;;;;;;5015567;28;20229;-67
2021/03/30 05:37:00;;;;;;;12.73;8.40;;;13.40;1.00;;;;;;5031137;28;20250;-66
2021/03/30 05:39:26;;;;;;;10.13;7.97;;;13.40;1.00;;;;;;5015634;28;20268;-66
2021/03/30 05:41:51;;;;;;;10.50;7.30;;;13.60;99.90;;;;;;5030971;28;20589;-67
2021/03/30 05:44:17;;;;;;;16.23;8.37;;;13.90;99.90;;;;;;5015185;28;20715;-67
2021/03/30 05:46:45;;;;;;;14.20;9.70;;;14.20;99.90;;;;;;5015498;28;20195;-67
2021/03/30 05:49:10;;;;;;;12.02;8.48;;;14.20;99.90;;;;;;5015576;28;20168;-67
2021/03/30 05:51:38;;;;;;;12.00;8.47;;;14.30;99.90;;;;;;5015156;28;20188;-62
2021/03/30 05:54:06;;;;;;;12.38;8.23;;;14.60;99.90;;;;;;5014954;28;20180;-61
2021/03/30 05:56:35;;;;;;;9.63;7.57;;;15.50;81.90;;;;;;5015060;28;20176;-61
2021/03/30 05:59:02;;;;;;;14.50;8.70;;;15.90;1.00;;;;;;5015060;28;20532;-61
2021/03/30 06:01:29;;;;;;;16.52;7.90;;;16.20;1.00;;;;;;5015040;28;20617;-61
2021/03/30 06:03:59;;;;;;;13.68;7.97;;;16.90;1.00;;;;;;5014827;28;20203;-63
2021/03/30 06:06:25;;;;;;;13.30;7.72;;;17.30;1.00;;;;;;5014986;28;20174;-61
2021/03/30 06:08:51;;;;;;;9.83;7.60;;;17.10;1.00;;;;;;5013938;28;20240;-61
2021/03/30 06:11:16;;;;;;;10.00;6.53;;;17.10;1.00;;;;;;5015377;28;20207;-61
2021/03/30 06:13:45;;;;;;;10.77;7.73;;;17.40;1.00;;;;;;5014565;28;20509;-61
2021/03/30 06:16:31;;;;;;;11.63;7.85;;;17.50;1.00;;;;;;5014686;28;20180;-61
2021/03/30 06:19:17;;;;;;;12.52;8.80;;;17.00;1.00;;;;;;5014835;28;20185;-61
2021/03/30 06:21:58;;;;;;;14.60;7.05;;;16.90;1.00;;;;;;5014467;28;20193;-62
2021/03/30 06:24:27;;;;;;;10.93;7.20;;;17.70;1.00;;;;;;5013161;28;20236;-62
2021/03/30 06:27:15;;;;;;;10.35;7.43;;;17.70;1.00;;;;;;5014801;28;20169;-62
2021/03/30 06:29:41;;;;;;;12.70;7.60;;;18.30;1.00;;;;;;5011741;28;20229;-62
2021/03/30 06:32:12;;;;;;;13.02;7.25;;;18.70;1.00;;;;;;5014024;28;20181;-62
2021/03/30 06:34:40;;;;;;;14.07;7.65;;;19.00;1.00;;;;;;5014160;28;20574;-62
2021/03/30 06:37:28;;;;;;;9.88;6.70;;;19.40;1.00;;;;;;5014270;28;20235;-62
2021/03/30 06:39:55;;;;;;;12.33;7.13;;;19.00;1.00;;;;;;5014530;28;20209;-62
2021/03/30 06:42:37;;;;;;;14.23;7.68;;;19.20;1.00;;;;;;5014353;28;20897;-61
2021/03/30 06:45:13;;;;;;;12.83;7.70;;;18.50;1.00;;;;;;5011972;28;20279;-64
2021/03/30 06:47:40;;;;;;;10.63;7.47;;;18.20;1.00;;;;;;5021376;28;20444;-64
2021/03/30 06:50:18;;;;;;;8.75;7.07;;;18.30;1.00;;;;;;5025641;28;20180;-64
2021/03/30 06:52:43;;;;;;;10.93;7.85;;;18.00;1.00;;;;;;5045465;28;20181;-65
2021/03/30 06:55:22;;;;;;;9.10;6.87;;;17.80;1.00;;;;;;5014124;28;20185;-68
2021/03/30 06:57:49;;;;;;;14.63;7.82;;;17.10;1.00;;;;;;5015509;28;20193;-67
2021/03/30 07:00:29;;;;;;;12.93;8.77;;;15.90;1.00;;;;;;5016131;28;20181;-67
2021/03/30 07:03:09;;;;;;;13.70;7.28;;;15.00;46.40;;;;;;5012649;28;20188;-66
2021/03/30 07:05:43;;;;;;;16.00;7.25;;;14.70;99.90;;;;;;5013233;28;20215;-62
2021/03/30 07:08:17;;;;;;;9.60;7.35;;;14.90;99.90;;;;;;5008919;28;20206;-64
2021/03/30 07:10:47;;;;;;;11.25;8.15;;;15.20;99.90;;;;;;4994367;28;20198;-65
2021/03/30 07:13:15;;;;;;;12.38;6.55;;;15.30;97.50;;;;;;5002544;28;20173;-65
2021/03/30 07:15:41;;;;;;;12.13;6.78;;;15.50;57.80;;;;;;5014647;28;20207;-64
2021/03/30 07:18:21;;;;;;;13.57;7.63;;;15.30;99.90;;;;;;5013822;28;20187;-64
2021/03/30 07:21:09;;;;;;;8.30;5.80;;;15.30;99.90;;;;;;5014007;28;20237;-63
2021/03/30 07:23:35;;;;;;;11.35;7.25;;;15.00;99.90;;;;;;5011620;28;20209;-64
2021/03/30 07:26:06;;;;;;;9.83;6.43;;;14.80;99.90;;;;;;5013768;28;20197;-67
2021/03/30 07:29:03;;;;;;;9.02;6.28;;;14.90;99.90;;;;;;5013821;28;20467;-66
2021/03/30 07:32:04;;;;;;;13.65;7.40;;;14.80;99.90;;;;;;4994318;28;20200;-67
2021/03/30 07:34:45;;;;;;;12.02;7.55;;;15.10;99.90;;;;;;5013515;28;20189;-65
2021/03/30 07:37:24;;;;;;;8.00;7.20;;;15.20;99.90;;;;;;5006999;28;20625;-64
2021/03/30 07:39:54;;;;;;;7.07;5.35;;;15.40;99.90;;;;;;5013485;28;20205;-65
2021/03/30 07:42:20;;;;;;;10.38;6.32;;;15.50;1.00;;;;;;5014116;28;20181;-64
2021/03/30 07:44:49;;;;;;;10.98;7.88;;;15.60;99.90;;;;;;5013145;28;20201;-64
2021/03/30 07:47:17;;;;;;;11.32;7.47;;;15.50;99.90;;;;;;5029288;28;20223;-65
2021/03/30 07:49:49;;;;;;;14.40;8.10;;;15.60;99.90;;;;;;5013280;28;20201;-66
2021/03/30 07:52:28;;;;;;;11.20;7.03;;;15.40;1.00;;;;;;5013667;28;20185;-67
2021/03/30 07:55:18;;;;;;;12.52;7.28;;;15.30;1.00;;;;;;5013643;28;20231;-64
2021/03/30 07:58:08;;;;;;;8.60;7.15;;;15.40;1.00;;;;;;5012415;28;20204;-64
2021/03/30 08:00:33;;;;;;;9.65;6.85;;;15.50;1.00;;;;;;5007854;28;20288;-63
2021/03/30 08:03:07;;;;;;;11.67;7.20;;;15.70;1.00;;;;;;5013543;28;20259;-63
2021/03/30 08:05:32;;;;;;;12.68;6.72;;;16.00;1.00;;;;;;5013180;28;20275;-66
2021/03/30 08:07:58;;;;;;;11.50;6.60;;;16.30;99.90;;;;;;5013495;28;20559;-66
2021/03/30 08:10:27;;;;;;;10.57;6.43;;;16.20;1.00;;;;;;5013328;28;20179;-65
2021/03/30 08:13:20;;;;;;;10.10;6.27;;;16.30;1.00;;;;;;5013285;28;20224;-65
2021/03/30 08:15:49;;;;;;;9.60;7.80;;;16.10;1.00;;;;;;5017140;28;20428;-65
2021/03/30 08:18:17;;;;;;;9.35;6.20;;;16.10;1.00;;;;;;5016455;28;20189;-65
2021/03/30 08:20:54;;;;;;;12.18;6.90;;;16.10;1.00;;;;;;5016782;28;20204;-65
2021/03/30 08:23:20;;;;;;;11.57;7.38;;;16.40;1.00;;;;;;5016777;28;20195;-63
2021/03/30 08:25:52;;;;;;;11.40;8.25;;;16.30;1.00;;;;;;5015760;28;20244;-63
2021/03/30 08:28:48;;;;;;;13.45;7.43;;;16.20;1.00;;;;;;5016968;28;20186;-62
2021/03/30 08:31:16;;;;;;;11.70;7.10;;;16.20;1.00;;;;;;5016861;28;20181;-66
2021/03/30 08:33:42;;;;;;;10.63;8.33;;;16.50;1.00;;;;;;5017251;28;20436;-65
2021/03/30 08:36:39;;;;;;;10.30;6.90;;;16.60;1.00;;;;;;5016937;28;20452;-65
2021/03/30 08:39:09;;;;;;;7.95;7.15;;;16.70;1.00;;;;;;5011465;28;20521;-66
2021/03/30 08:41:45;;;;;;;12.20;8.23;;;16.50;1.00;;;;;;5016997;28;20185;-65
2021/03/30 08:44:16;;;;;;;9.43;7.88;;;16.60;1.00;;;;;;5018689;28;20198;-67
2021/03/30 08:46:44;;;;;;;8.60;7.47;;;16.60;1.00;;;;;;5017003;28;20169;-64
2021/03/30 08:49:25;;;;;;;9.57;7.20;;;16.70;1.00;;;;;;5016389;28;20181;-67
2021/03/30 08:51:58;;;;;;;10.07;7.50;;;16.70;1.00;;;;;;5016308;28;20452;-66
2021/03/30 08:54:25;;;;;;;10.07;7.63;;;17.00;1.00;;;;;;4996476;28;20766;-66
2021/03/30 08:56:54;;;;;;;8.60;6.53;;;17.30;1.00;;;;;;4996708;28;20430;-65
2021/03/30 08:59:21;;;;;;;12.33;7.73;;;17.30;1.00;;;;;;4996834;28;20818;-68
2021/03/30 09:01:58;;;;;;;12.90;6.77;;;17.40;1.00;;;;;;4996657;28;20434;-67
2021/03/30 09:04:29;;;;;;;13.67;7.93;;;17.50;1.00;;;;;;4995834;28;20520;-68
2021/03/30 09:06:54;;;;;;;9.90;6.33;;;17.50;1.00;;;;;;4997030;28;20421;-67
2021/03/30 09:09:22;;;;;;;8.20;6.80;;;17.60;1.00;;;;;;4995737;28;20464;-67
2021/03/30 09:11:48;;;;;;;8.23;6.40;;;17.70;1.00;;;;;;4995615;28;20187;-67
2021/03/30 09:14:22;;;;;;;13.00;6.60;;;17.80;1.00;;;;;;4996412;28;20438;-65
2021/03/30 09:16:51;;;;;;;8.83;6.30;;;17.90;1.00;;;;;;4996375;28;20517;-65
2021/03/30 09:19:30;;;;;;;6.10;5.50;;;17.90;1.00;;;;;;4996557;28;20740;-65
2021/03/30 09:22:02;;;;;;;9.53;6.10;;;17.60;1.00;;;;;;4996226;28;20437;-62
2021/03/30 09:24:45;;;;;;;8.17;5.83;;;17.50;1.00;;;;;;5006343;28;20461;-66
2021/03/30 09:27:12;;;;;;;8.07;5.80;;;17.70;1.00;;;;;;5015672;28;20436;-67
2021/03/30 09:29:38;;;;;;;8.50;5.30;;;17.60;1.00;;;;;;5015690;28;20772;-69
2021/03/30 09:32:08;;;;;;;9.70;5.80;;;17.60;1.00;;;;;;5014606;28;20431;-66
2021/03/30 09:34:41;;;;;;;9.63;5.83;;;17.70;1.00;;;;;;5015372;28;20437;-67
2021/03/30 09:37:07;;;;;;;7.93;5.70;;;17.60;1.00;;;;;;5015748;28;20509;-67
2021/03/30 09:39:37;;;;;;;6.23;4.80;;;17.50;1.00;;;;;;5015877;28;20948;-64
2021/03/30 09:42:10;;;;;;;8.43;5.53;;;17.50;1.00;;;;;;5015503;28;20426;-67
2021/03/30 09:44:42;;;;;;;6.30;4.37;;;17.70;1.00;;;;;;5014484;28;20468;-64
2021/03/30 09:47:08;;;;;;;5.60;4.43;;;17.80;1.00;;;;;;5015497;28;20757;-66
2021/03/30 09:49:34;;;;;;;7.53;5.17;;;17.80;1.00;;;;;;5015215;28;20753;-66
2021/03/30 09:52:02;;;;;;;4.90;4.30;;;17.80;99.90;;;;;;5015299;28;20429;-64
2021/03/30 09:54:46;;;;;;;9.83;5.40;;;17.80;99.90;;;;;;5014884;28;20512;-63
2021/03/30 09:57:14;;;;;;;10.23;4.80;;;17.80;1.00;;;;;;5030927;28;20575;-64
2021/03/30 09:59:47;;;;;;;9.07;5.33;;;17.80;1.00;;;;;;5030551;28;20430;-64
2021/03/30 10:02:15;;;;;;;6.93;4.80;;;17.80;1.00;;;;;;5014916;28;20434;-64
2021/03/30 10:04:41;;;;;;;10.70;5.23;;;18.10;99.90;;;;;;5014881;28;20535;-65
2021/03/30 10:07:17;;;;;;;5.80;4.73;;;18.30;99.90;;;;;;5014969;28;20422;-64
2021/03/30 10:09:55;;;;;;;7.07;5.63;;;18.30;99.90;;;;;;5030799;28;20237;-65
2021/03/30 10:12:23;;;;;;;6.50;4.40;;;18.20;99.90;;;;;;5015356;28;20449;-63
2021/03/30 10:14:48;;;;;;;6.37;4.83;;;18.30;99.90;;;;;;5017989;28;20437;-65
2021/03/30 10:17:14;;;;;;;5.93;5.00;;;18.30;99.90;;;;;;5023201;28;20445;-65
2021/03/30 10:19:50;;;;;;;7.73;4.77;;;18.40;99.90;;;;;;5030479;28;20284;-66
2021/03/30 10:22:24;;;;;;;6.50;5.00;;;18.60;99.90;;;;;;5013909;28;20240;-67
2021/03/30 10:25:07;;;;;;;8.47;4.87;;;18.50;99.90;;;;;;5019737;28;20486;-67
2021/03/30 10:27:34;;;;;;;7.03;4.37;;;18.50;99.90;;;;;;5025576;28;20441;-69
2021/03/30 10:30:00;;;;;;;4.20;3.63;;;18.80;99.90;;;;;;5023003;28;20905;-68
2021/03/30 10:32:30;;;;;;;10.03;5.00;;;19.00;99.90;;;;;;5024784;28;20523;-65
2021/03/30 10:34:56;;;;;;;6.37;4.87;;;19.20;57.90;;;;;;5033011;28;20292;-64
2021/03/30 10:37:21;;;;;;;8.93;5.37;;;19.00;12.90;;;;;;5033353;28;20513;-66
2021/03/30 10:39:47;;;;;;;5.70;4.80;;;19.00;33.80;;;;;;5034347;28;20273;-66
2021/03/30 10:42:17;;;;;;;7.57;5.00;;;18.90;49.60;;;;;;5034454;28;20240;-67
2021/03/30 10:44:48;;;;;;;6.67;4.90;;;19.20;54.00;;;;;;5031601;28;20287;-67
2021/03/30 10:47:18;;;;;;;6.63;4.60;;;19.30;20.90;;;;;;5025898;28;20514;-66
2021/03/30 10:49:46;;;;;;;7.80;5.17;;;19.30;1.00;;;;;;5034316;28;20503;-67
2021/03/30 10:52:20;;;;;;;5.40;4.33;;;19.20;2.20;;;;;;5030755;28;20428;-67
2021/03/30 10:54:46;;;;;;;6.57;5.53;;;19.40;1.00;;;;;;5029365;28;20526;-65
2021/03/30 10:57:15;;;;;;;5.80;4.80;;;19.40;1.00;;;;;;5014276;28;20430;-68
2021/03/30 10:59:44;;;;;;;7.20;4.80;;;19.20;1.00;;;;;;5014248;28;20825;-66
2021/03/30 11:02:12;;;;;;;10.57;5.07;;;19.10;1.00;;;;;;5014151;28;20439;-66
2021/03/30 11:04:39;;;;;;;7.03;4.97;;;19.30;1.00;;;;;;5013887;28;20453;-66
2021/03/30 11:07:05;;;;;;;9.30;5.20;;;19.50;1.00;;;;;;5014111;28;20440;-66
2021/03/30 11:09:31;;;;;;;5.60;4.57;;;19.40;1.00;;;;;;5013929;28;20422;-68
2021/03/30 11:11:57;;;;;;;7.77;4.70;;;19.40;1.00;;;;;;5013975;28;20458;-66
2021/03/30 11:14:23;;;;;;;7.00;4.70;;;19.40;1.00;;;;;;5029130;28;20481;-67
2021/03/30 11:16:49;;;;;;;7.87;5.80;;;19.50;1.00;;;;;;5013965;28;20182;-68
2021/03/30 11:19:15;;;;;;;9.10;6.07;;;19.50;1.00;;;;;;5013741;28;20197;-64
2021/03/30 11:21:41;;;;;;;7.10;5.07;;;19.70;1.00;;;;;;5013580;28;20437;-64
2021/03/30 11:24:11;;;;;;;7.13;4.90;;;19.80;1.00;;;;;;5013877;28;20465;-64
2021/03/30 11:26:38;;;;;;;6.83;4.73;;;19.60;1.00;;;;;;5013514;28;20600;-66
2021/03/30 11:29:04;;;;;;;7.30;4.87;;;19.80;1.00;;;;;;5013554;28;20902;-64
2021/03/30 11:36:47;;;;;;;9.67;4.97;;;19.80;1.00;;;;;;5018039;28;20437;-66
2021/03/30 11:39:13;;;;;;;5.33;4.60;;;19.70;1.00;;;;;;5025398;28;20746;-67
2021/03/30 11:41:40;;;;;;;7.73;5.37;;;20.00;1.00;;;;;;5030973;28;20447;-65
2021/03/30 11:44:06;;;;;;;7.90;5.17;;;20.10;1.00;;;;;;5024051;28;20544;-67
2021/03/30 11:46:32;;;;;;;5.20;4.63;;;19.90;1.00;;;;;;5033754;28;20479;-66
2021/03/30 11:48:57;;;;;;;7.30;4.83;;;19.90;1.00;;;;;;5030731;28;20445;-64
2021/03/30 11:51:23;;;;;;;5.90;4.27;;;19.90;1.00;;;;;;5022762;28;20200;-67
2021/03/30 11:53:49;;;;;;;7.17;4.93;;;19.90;1.00;;;;;;5026989;28;20213;-66
2021/03/30 11:56:15;;;;;;;7.13;4.83;;;20.00;1.00;;;;;;5045262;28;20254;-66
2021/03/30 11:58:40;;;;;;;6.80;4.67;;;20.00;1.00;;;;;;5037328;28;20455;-66
2021/03/30 12:01:07;;;;;;;5.33;4.27;;;20.00;1.00;;;;;;5038578;28;20186;-67
2021/03/30 12:03:36;;;;;;;7.03;5.03;;;20.00;1.00;;;;;;5037441;28;20181;-68
2021/03/30 12:06:06;;;;;;;7.33;5.27;;;20.10;1.00;;;;;;5038406;28;20428;-66
2021/03/30 12:08:32;;;;;;;8.20;5.20;;;20.20;1.00;;;;;;5038026;28;20507;-66
2021/03/30 12:10:58;;;;;;;6.63;5.10;;;20.30;1.00;;;;;;5037899;28;20428;-64
2021/03/30 12:13:24;;;;;;;8.50;5.27;;;20.40;1.00;;;;;;5037578;28;20416;-64
2021/03/30 12:15:50;;;;;;;5.13;4.00;;;20.70;1.00;;;;;;5038379;28;20816;-67
2021/03/30 12:18:16;;;;;;;4.63;4.20;;;20.60;1.00;;;;;;5039010;28;20193;-66
2021/03/30 12:20:41;;;;;;;6.70;4.50;;;20.70;1.00;;;;;;5037693;28;20178;-65
2021/03/30 12:23:07;;;;;;;5.17;4.67;;;20.70;1.00;;;;;;5036571;28;20496;-68
2021/03/30 12:25:32;;;;;;;5.60;4.83;;;20.50;1.00;;;;;;5037895;28;20657;-69
2021/03/30 12:27:58;;;;;;;4.67;4.23;;;20.40;1.00;;;;;;5021913;28;20495;-67
2021/03/30 12:30:24;;;;;;;5.37;3.63;;;20.30;1.00;;;;;;5017785;28;20602;-66
2021/03/30 12:32:49;;;;;;;6.93;3.83;;;20.20;1.00;;;;;;5017306;28;20199;-67
2021/03/30 12:35:15;;;;;;;8.73;3.90;;;20.30;1.00;;;;;;5017109;28;20182;-67
2021/03/30 12:37:41;;;;;;;6.73;4.03;;;20.20;1.00;;;;;;5016135;28;20219;-68
2021/03/30 12:40:07;;;;;;;4.53;3.63;;;20.30;1.00;;;;;;5017292;28;20188;-68
2021/03/30 12:42:33;;;;;;;4.70;3.40;;;20.40;1.00;;;;;;5016855;28;20299;-68
2021/03/30 12:44:59;;;;;;;4.20;2.83;;;20.60;1.00;;;;;;5016083;28;20507;-68
2021/03/30 12:47:25;;;;;;;7.80;3.70;;;20.80;1.00;;;;;;5016982;28;20174;-67
2021/03/30 12:49:50;;;;;;;6.07;4.43;;;20.90;1.00;;;;;;5016818;28;20247;-68
2021/03/30 12:52:16;;;;;;;7.00;3.50;;;21.10;1.00;;;;;;5016526;28;20988;-66
2021/03/30 12:54:42;;;;;;;4.90;2.73;;;21.10;1.00;;;;;;5016373;28;20477;-69
2021/03/30 12:57:08;;;;;;;4.33;3.17;;;20.60;1.00;;;;;;5016510;28;20640;-66
2021/03/30 12:59:33;;;;;;;5.53;3.30;;;20.50;1.00;;;;;;5031369;28;20437;-66
2021/03/30 13:01:59;;;;;;;6.33;2.97;;;20.40;1.00;;;;;;5016091;28;20217;-69
2021/03/30 13:04:25;;;;;;;7.60;3.87;;;20.80;1.00;;;;;;5016012;28;20216;-65